sensor_id;sensor_type;location;lat;lon;timestamp;P1;durP1;ratioP1;P2;durP2;ratioP2
56181;SDS011;51963;46.052;14.544;2022-10-30T00:01:06;34.78;;;14.68;;
56181;SDS011;51963;46.052;14.544;2022-10-30T00:03:32;27.80;;;13.98;;
56181;SDS011;51963;46.052;14.544;2022-10-30T00:05:58;26.52;;;14.65;;
56181;SDS011;51963;46.052;14.544;2022-10-30T00:08:23;37.70;;;16.17;;
56181;SDS011;51963;46.052;14.544;2022-10-30T00:10:50;32.72;;;15.15;;
56181;SDS011;51963;46.052;14.544;2022-10-30T00:13:16;31.77;;;14.70;;
56181;SDS011;51963;46.052;14.544;2022-10-30T00:15:46;38.90;;;14.88;;
56181;SDS011;51963;46.052;14.544;2022-10-30T00:18:17;31.27;;;14.00;;
56181;SDS011;51963;46.052;14.544;2022-10-30T00:20:43;31.83;;;15.10;;
56181;SDS011;51963;46.052;14.544;2022-10-30T00:23:09;35.38;;;15.50;;
56181;SDS011;51963;46.052;14.544;2022-10-30T00:25:35;32.38;;;14.85;;
56181;SDS011;51963;46.052;14.544;2022-10-30T00:28:02;28.27;;;14.15;;
56181;SDS011;51963;46.052;14.544;2022-10-30T00:30:29;29.60;;;14.95;;
56181;SDS011;51963;46.052;14.544;2022-10-30T00:32:55;22.95;;;12.85;;
56181;SDS011;51963;46.052;14.544;2022-10-30T00:35:21;26.75;;;14.02;;
56181;SDS011;51963;46.052;14.544;2022-10-30T00:37:47;43.53;;;15.88;;
56181;SDS011;51963;46.052;14.544;2022-10-30T00:40:16;24.88;;;13.38;;
56181;SDS011;51963;46.052;14.544;2022-10-30T00:42:42;26.30;;;14.35;;
56181;SDS011;51963;46.052;14.544;2022-10-30T00:45:12;26.73;;;14.60;;
56181;SDS011;51963;46.052;14.544;2022-10-30T00:47:41;29.60;;;14.25;;
56181;SDS011;51963;46.052;14.544;2022-10-30T00:50:12;34.88;;;17.92;;
56181;SDS011;51963;46.052;14.544;2022-10-30T00:53:03;26.05;;;15.27;;
56181;SDS011;51963;46.052;14.544;2022-10-30T00:55:57;28.25;;;14.38;;
56181;SDS011;51963;46.052;14.544;2022-10-30T00:58:26;30.23;;;14.50;;
56181;SDS011;51963;46.052;14.544;2022-10-30T01:01:01;41.30;;;16.38;;
56181;SDS011;51963;46.052;14.544;2022-10-30T01:03:31;26.52;;;14.60;;
56181;SDS011;51963;46.052;14.544;2022-10-30T01:05:59;24.17;;;13.52;;
56181;SDS011;51963;46.052;14.544;2022-10-30T01:08:30;32.15;;;15.38;;
56181;SDS011;51963;46.052;14.544;2022-10-30T01:10:57;26.80;;;14.45;;
56181;SDS011;51963;46.052;14.544;2022-10-30T01:13:26;25.75;;;14.45;;
56181;SDS011;51963;46.052;14.544;2022-10-30T01:16:13;32.22;;;16.25;;
56181;SDS011;51963;46.052;14.544;2022-10-30T01:19:16;28.17;;;14.98;;
56181;SDS011;51963;46.052;14.544;2022-10-30T01:34:26;26.60;;;13.02;;
56181;SDS011;51963;46.052;14.544;2022-10-30T01:37:31;20.67;;;12.60;;
56181;SDS011;51963;46.052;14.544;2022-10-30T01:39:55;26.00;;;13.45;;
56181;SDS011;51963;46.052;14.544;2022-10-30T01:45:24;28.83;;;15.13;;
56181;SDS011;51963;46.052;14.544;2022-10-30T01:50:54;22.23;;;12.52;;
56181;SDS011;51963;46.052;14.544;2022-10-30T01:56:33;22.80;;;12.88;;
56181;SDS011;51963;46.052;14.544;2022-10-30T01:59:16;45.45;;;14.77;;
56181;SDS011;51963;46.052;14.544;2022-10-30T02:01:48;25.48;;;13.18;;
56181;SDS011;51963;46.052;14.544;2022-10-30T02:04:14;28.55;;;14.45;;
56181;SDS011;51963;46.052;14.544;2022-10-30T02:06:40;36.05;;;14.25;;
56181;SDS011;51963;46.052;14.544;2022-10-30T02:09:07;23.67;;;13.32;;
56181;SDS011;51963;46.052;14.544;2022-10-30T02:11:35;18.63;;;11.77;;
56181;SDS011;51963;46.052;14.544;2022-10-30T02:14:06;23.63;;;13.73;;
56181;SDS011;51963;46.052;14.544;2022-10-30T02:16:33;25.98;;;14.18;;
56181;SDS011;51963;46.052;14.544;2022-10-30T02:19:01;23.63;;;13.50;;
56181;SDS011;51963;46.052;14.544;2022-10-30T02:21:27;21.70;;;13.40;;
56181;SDS011;51963;46.052;14.544;2022-10-30T02:23:53;23.83;;;13.23;;
56181;SDS011;51963;46.052;14.544;2022-10-30T02:26:19;23.30;;;13.38;;
56181;SDS011;51963;46.052;14.544;2022-10-30T02:28:45;24.23;;;13.60;;
56181;SDS011;51963;46.052;14.544;2022-10-30T02:31:11;35.75;;;14.75;;
56181;SDS011;51963;46.052;14.544;2022-10-30T02:36:08;20.33;;;12.25;;
56181;SDS011;51963;46.052;14.544;2022-10-30T02:38:34;22.85;;;13.20;;
56181;SDS011;51963;46.052;14.544;2022-10-30T02:40:59;25.90;;;14.20;;
56181;SDS011;51963;46.052;14.544;2022-10-30T02:43:25;22.27;;;13.60;;
56181;SDS011;51963;46.052;14.544;2022-10-30T02:45:51;23.27;;;13.00;;
56181;SDS011;51963;46.052;14.544;2022-10-30T02:48:18;29.80;;;14.93;;
56181;SDS011;51963;46.052;14.544;2022-10-30T02:50:43;23.00;;;13.73;;
56181;SDS011;51963;46.052;14.544;2022-10-30T02:53:09;22.83;;;12.80;;
56181;SDS011;51963;46.052;14.544;2022-10-30T02:55:35;30.65;;;14.07;;
56181;SDS011;51963;46.052;14.544;2022-10-30T02:58:00;24.67;;;13.68;;
56181;SDS011;51963;46.052;14.544;2022-10-30T03:00:26;22.75;;;13.68;;
56181;SDS011;51963;46.052;14.544;2022-10-30T03:02:55;26.23;;;13.70;;
56181;SDS011;51963;46.052;14.544;2022-10-30T03:05:21;27.95;;;13.25;;
56181;SDS011;51963;46.052;14.544;2022-10-30T03:07:47;22.70;;;13.10;;
56181;SDS011;51963;46.052;14.544;2022-10-30T03:10:13;25.00;;;13.18;;
56181;SDS011;51963;46.052;14.544;2022-10-30T03:12:39;24.05;;;13.07;;
56181;SDS011;51963;46.052;14.544;2022-10-30T03:15:06;29.27;;;13.00;;
56181;SDS011;51963;46.052;14.544;2022-10-30T03:17:34;23.23;;;13.03;;
56181;SDS011;51963;46.052;14.544;2022-10-30T03:20:00;24.52;;;13.48;;
56181;SDS011;51963;46.052;14.544;2022-10-30T03:22:26;26.48;;;13.07;;
56181;SDS011;51963;46.052;14.544;2022-10-30T03:24:52;57.55;;;14.70;;
56181;SDS011;51963;46.052;14.544;2022-10-30T03:27:18;28.63;;;13.55;;
56181;SDS011;51963;46.052;14.544;2022-10-30T03:29:44;23.00;;;12.27;;
56181;SDS011;51963;46.052;14.544;2022-10-30T03:32:11;39.08;;;13.88;;
56181;SDS011;51963;46.052;14.544;2022-10-30T03:34:44;39.85;;;14.15;;
56181;SDS011;51963;46.052;14.544;2022-10-30T03:37:09;38.95;;;14.50;;
56181;SDS011;51963;46.052;14.544;2022-10-30T03:39:35;26.23;;;13.43;;
56181;SDS011;51963;46.052;14.544;2022-10-30T03:42:01;30.88;;;12.50;;
56181;SDS011;51963;46.052;14.544;2022-10-30T03:44:27;27.75;;;12.93;;
56181;SDS011;51963;46.052;14.544;2022-10-30T03:46:54;24.40;;;13.93;;
56181;SDS011;51963;46.052;14.544;2022-10-30T03:49:27;26.50;;;14.05;;
56181;SDS011;51963;46.052;14.544;2022-10-30T03:51:53;22.85;;;12.73;;
56181;SDS011;51963;46.052;14.544;2022-10-30T03:54:21;22.90;;;13.88;;
56181;SDS011;51963;46.052;14.544;2022-10-30T03:56:47;21.85;;;13.18;;
56181;SDS011;51963;46.052;14.544;2022-10-30T03:59:16;30.75;;;16.20;;
56181;SDS011;51963;46.052;14.544;2022-10-30T04:01:49;32.47;;;16.45;;
56181;SDS011;51963;46.052;14.544;2022-10-30T04:04:15;51.45;;;16.67;;
56181;SDS011;51963;46.052;14.544;2022-10-30T04:06:42;30.52;;;16.00;;
56181;SDS011;51963;46.052;14.544;2022-10-30T04:09:08;34.22;;;17.02;;
56181;SDS011;51963;46.052;14.544;2022-10-30T04:11:39;31.70;;;15.75;;
56181;SDS011;51963;46.052;14.544;2022-10-30T04:14:05;31.67;;;16.50;;
56181;SDS011;51963;46.052;14.544;2022-10-30T04:16:31;38.63;;;17.65;;
56181;SDS011;51963;46.052;14.544;2022-10-30T04:18:58;35.03;;;16.95;;
56181;SDS011;51963;46.052;14.544;2022-10-30T04:21:24;39.08;;;17.40;;
56181;SDS011;51963;46.052;14.544;2022-10-30T04:23:50;36.70;;;17.70;;
56181;SDS011;51963;46.052;14.544;2022-10-30T04:26:21;29.88;;;16.65;;
56181;SDS011;51963;46.052;14.544;2022-10-30T04:28:48;30.67;;;14.75;;
56181;SDS011;51963;46.052;14.544;2022-10-30T04:31:13;31.60;;;15.43;;
56181;SDS011;51963;46.052;14.544;2022-10-30T04:33:39;23.67;;;13.63;;
56181;SDS011;51963;46.052;14.544;2022-10-30T04:36:07;24.35;;;14.73;;
56181;SDS011;51963;46.052;14.544;2022-10-30T04:38:36;25.95;;;14.38;;
56181;SDS011;51963;46.052;14.544;2022-10-30T04:41:04;26.88;;;15.27;;
56181;SDS011;51963;46.052;14.544;2022-10-30T04:43:46;26.67;;;14.32;;
56181;SDS011;51963;46.052;14.544;2022-10-30T04:46:13;22.00;;;13.27;;
56181;SDS011;51963;46.052;14.544;2022-10-30T04:48:38;29.45;;;13.38;;
56181;SDS011;51963;46.052;14.544;2022-10-30T04:51:05;30.70;;;13.52;;
56181;SDS011;51963;46.052;14.544;2022-10-30T04:53:31;26.60;;;14.73;;
56181;SDS011;51963;46.052;14.544;2022-10-30T04:56:04;22.85;;;13.63;;
56181;SDS011;51963;46.052;14.544;2022-10-30T04:58:31;22.55;;;13.52;;
56181;SDS011;51963;46.052;14.544;2022-10-30T05:01:03;23.13;;;13.05;;
56181;SDS011;51963;46.052;14.544;2022-10-30T05:03:31;21.75;;;12.85;;
56181;SDS011;51963;46.052;14.544;2022-10-30T05:06:01;34.03;;;14.00;;
56181;SDS011;51963;46.052;14.544;2022-10-30T05:08:28;21.67;;;13.68;;
56181;SDS011;51963;46.052;14.544;2022-10-30T05:10:55;20.30;;;12.68;;
56181;SDS011;51963;46.052;14.544;2022-10-30T05:13:21;23.88;;;13.30;;
56181;SDS011;51963;46.052;14.544;2022-10-30T05:15:47;21.17;;;12.30;;
56181;SDS011;51963;46.052;14.544;2022-10-30T05:18:13;19.83;;;13.02;;
56181;SDS011;51963;46.052;14.544;2022-10-30T05:20:38;19.55;;;12.30;;
56181;SDS011;51963;46.052;14.544;2022-10-30T05:23:04;17.52;;;11.63;;
56181;SDS011;51963;46.052;14.544;2022-10-30T05:25:30;19.95;;;12.30;;
56181;SDS011;51963;46.052;14.544;2022-10-30T05:28:02;22.80;;;13.10;;
56181;SDS011;51963;46.052;14.544;2022-10-30T05:30:34;35.75;;;14.50;;
56181;SDS011;51963;46.052;14.544;2022-10-30T05:33:03;39.67;;;14.00;;
56181;SDS011;51963;46.052;14.544;2022-10-30T05:35:31;24.02;;;14.50;;
56181;SDS011;51963;46.052;14.544;2022-10-30T05:38:02;19.88;;;12.80;;
56181;SDS011;51963;46.052;14.544;2022-10-30T05:40:30;20.48;;;13.18;;
56181;SDS011;51963;46.052;14.544;2022-10-30T05:42:57;22.50;;;13.30;;
56181;SDS011;51963;46.052;14.544;2022-10-30T05:45:23;22.63;;;13.60;;
56181;SDS011;51963;46.052;14.544;2022-10-30T05:47:53;20.13;;;12.70;;
56181;SDS011;51963;46.052;14.544;2022-10-30T05:50:30;53.33;;;14.43;;
56181;SDS011;51963;46.052;14.544;2022-10-30T05:53:19;51.08;;;14.88;;
56181;SDS011;51963;46.052;14.544;2022-10-30T05:55:45;20.25;;;12.82;;
56181;SDS011;51963;46.052;14.544;2022-10-30T05:58:16;23.20;;;11.90;;
56181;SDS011;51963;46.052;14.544;2022-10-30T06:00:44;22.30;;;13.03;;
56181;SDS011;51963;46.052;14.544;2022-10-30T06:03:14;23.30;;;13.50;;
56181;SDS011;51963;46.052;14.544;2022-10-30T06:05:45;26.05;;;13.25;;
56181;SDS011;51963;46.052;14.544;2022-10-30T06:08:12;27.63;;;13.57;;
56181;SDS011;51963;46.052;14.544;2022-10-30T06:10:41;22.77;;;12.90;;
56181;SDS011;51963;46.052;14.544;2022-10-30T06:13:11;17.63;;;12.10;;
56181;SDS011;51963;46.052;14.544;2022-10-30T06:15:53;23.50;;;11.93;;
56181;SDS011;51963;46.052;14.544;2022-10-30T06:18:21;15.30;;;11.05;;
56181;SDS011;51963;46.052;14.544;2022-10-30T06:20:53;20.10;;;11.35;;
56181;SDS011;51963;46.052;14.544;2022-10-30T06:23:20;22.60;;;12.80;;
56181;SDS011;51963;46.052;14.544;2022-10-30T06:25:50;38.42;;;13.77;;
56181;SDS011;51963;46.052;14.544;2022-10-30T06:28:21;59.30;;;16.30;;
56181;SDS011;51963;46.052;14.544;2022-10-30T06:30:47;24.65;;;13.30;;
56181;SDS011;51963;46.052;14.544;2022-10-30T06:33:13;27.77;;;12.20;;
56181;SDS011;51963;46.052;14.544;2022-10-30T06:35:43;24.70;;;11.05;;
56181;SDS011;51963;46.052;14.544;2022-10-30T06:38:09;17.55;;;11.60;;
56181;SDS011;51963;46.052;14.544;2022-10-30T06:40:37;18.87;;;12.10;;
56181;SDS011;51963;46.052;14.544;2022-10-30T06:43:21;59.53;;;12.57;;
56181;SDS011;51963;46.052;14.544;2022-10-30T06:45:58;20.73;;;11.10;;
56181;SDS011;51963;46.052;14.544;2022-10-30T06:48:25;18.20;;;11.45;;
56181;SDS011;51963;46.052;14.544;2022-10-30T06:50:53;47.10;;;11.63;;
56181;SDS011;51963;46.052;14.544;2022-10-30T06:55:57;15.57;;;9.85;;
56181;SDS011;51963;46.052;14.544;2022-10-30T06:58:56;13.25;;;9.40;;
56181;SDS011;51963;46.052;14.544;2022-10-30T07:01:39;22.63;;;11.40;;
56181;SDS011;51963;46.052;14.544;2022-10-30T07:04:21;23.83;;;11.20;;
56181;SDS011;51963;46.052;14.544;2022-10-30T07:06:46;29.30;;;12.13;;
56181;SDS011;51963;46.052;14.544;2022-10-30T07:09:12;19.88;;;11.60;;
56181;SDS011;51963;46.052;14.544;2022-10-30T07:11:38;17.95;;;11.70;;
56181;SDS011;51963;46.052;14.544;2022-10-30T07:14:17;20.85;;;11.45;;
56181;SDS011;51963;46.052;14.544;2022-10-30T07:17:01;17.17;;;10.82;;
56181;SDS011;51963;46.052;14.544;2022-10-30T07:19:29;23.75;;;11.60;;
56181;SDS011;51963;46.052;14.544;2022-10-30T07:21:56;16.77;;;10.35;;
56181;SDS011;51963;46.052;14.544;2022-10-30T07:24:21;21.52;;;10.68;;
56181;SDS011;51963;46.052;14.544;2022-10-30T07:26:54;30.15;;;11.40;;
56181;SDS011;51963;46.052;14.544;2022-10-30T07:29:36;16.38;;;11.40;;
56181;SDS011;51963;46.052;14.544;2022-10-30T07:32:10;23.00;;;11.75;;
56181;SDS011;51963;46.052;14.544;2022-10-30T07:34:56;22.88;;;11.32;;
56181;SDS011;51963;46.052;14.544;2022-10-30T07:37:42;39.10;;;13.60;;
56181;SDS011;51963;46.052;14.544;2022-10-30T07:40:11;24.08;;;12.07;;
56181;SDS011;51963;46.052;14.544;2022-10-30T07:42:56;19.63;;;12.30;;
56181;SDS011;51963;46.052;14.544;2022-10-30T07:45:30;24.60;;;13.68;;
56181;SDS011;51963;46.052;14.544;2022-10-30T07:48:26;23.15;;;14.00;;
56181;SDS011;51963;46.052;14.544;2022-10-30T07:50:58;20.98;;;13.80;;
56181;SDS011;51963;46.052;14.544;2022-10-30T07:53:24;27.13;;;13.85;;
56181;SDS011;51963;46.052;14.544;2022-10-30T07:55:50;18.27;;;11.63;;
56181;SDS011;51963;46.052;14.544;2022-10-30T07:58:34;36.80;;;11.50;;
56181;SDS011;51963;46.052;14.544;2022-10-30T08:01:15;21.45;;;10.95;;
56181;SDS011;51963;46.052;14.544;2022-10-30T08:03:43;18.60;;;11.38;;
56181;SDS011;51963;46.052;14.544;2022-10-30T08:06:13;15.98;;;10.18;;
56181;SDS011;51963;46.052;14.544;2022-10-30T08:08:39;32.78;;;12.00;;
56181;SDS011;51963;46.052;14.544;2022-10-30T08:11:20;26.13;;;10.55;;
56181;SDS011;51963;46.052;14.544;2022-10-30T08:13:46;20.67;;;12.63;;
56181;SDS011;51963;46.052;14.544;2022-10-30T08:16:12;23.05;;;12.38;;
56181;SDS011;51963;46.052;14.544;2022-10-30T08:18:38;19.13;;;12.25;;
56181;SDS011;51963;46.052;14.544;2022-10-30T08:23:31;28.30;;;15.55;;
56181;SDS011;51963;46.052;14.544;2022-10-30T08:26:03;35.58;;;16.48;;
56181;SDS011;51963;46.052;14.544;2022-10-30T08:28:32;29.52;;;14.23;;
56181;SDS011;51963;46.052;14.544;2022-10-30T08:30:59;25.40;;;13.95;;
56181;SDS011;51963;46.052;14.544;2022-10-30T08:33:46;29.05;;;15.85;;
56181;SDS011;51963;46.052;14.544;2022-10-30T08:36:25;17.83;;;11.68;;
56181;SDS011;51963;46.052;14.544;2022-10-30T08:38:51;18.85;;;11.65;;
56181;SDS011;51963;46.052;14.544;2022-10-30T08:41:28;22.40;;;11.70;;
56181;SDS011;51963;46.052;14.544;2022-10-30T08:43:54;19.30;;;12.55;;
56181;SDS011;51963;46.052;14.544;2022-10-30T08:46:23;22.45;;;12.13;;
56181;SDS011;51963;46.052;14.544;2022-10-30T08:48:48;17.60;;;11.60;;
56181;SDS011;51963;46.052;14.544;2022-10-30T08:51:14;18.42;;;11.50;;
56181;SDS011;51963;46.052;14.544;2022-10-30T08:53:43;18.98;;;11.73;;
56181;SDS011;51963;46.052;14.544;2022-10-30T08:56:14;17.90;;;11.07;;
56181;SDS011;51963;46.052;14.544;2022-10-30T08:59:06;16.10;;;11.52;;
56181;SDS011;51963;46.052;14.544;2022-10-30T09:01:34;17.90;;;11.55;;
56181;SDS011;51963;46.052;14.544;2022-10-30T09:04:18;14.80;;;10.65;;
56181;SDS011;51963;46.052;14.544;2022-10-30T09:07:03;22.92;;;13.43;;
56181;SDS011;51963;46.052;14.544;2022-10-30T09:09:34;20.80;;;12.98;;
56181;SDS011;51963;46.052;14.544;2022-10-30T09:12:01;17.98;;;11.98;;
56181;SDS011;51963;46.052;14.544;2022-10-30T09:14:33;18.45;;;10.98;;
56181;SDS011;51963;46.052;14.544;2022-10-30T09:16:59;16.10;;;11.60;;
56181;SDS011;51963;46.052;14.544;2022-10-30T09:19:25;16.75;;;12.07;;
56181;SDS011;51963;46.052;14.544;2022-10-30T09:21:53;19.00;;;11.80;;
56181;SDS011;51963;46.052;14.544;2022-10-30T09:24:20;19.58;;;12.98;;
56181;SDS011;51963;46.052;14.544;2022-10-30T09:27:05;19.23;;;13.02;;
56181;SDS011;51963;46.052;14.544;2022-10-30T09:29:43;17.33;;;11.98;;
56181;SDS011;51963;46.052;14.544;2022-10-30T09:32:22;19.20;;;11.75;;
56181;SDS011;51963;46.052;14.544;2022-10-30T09:35:01;18.83;;;12.73;;
56181;SDS011;51963;46.052;14.544;2022-10-30T09:37:38;16.52;;;12.43;;
56181;SDS011;51963;46.052;14.544;2022-10-30T09:40:39;19.40;;;13.30;;
56181;SDS011;51963;46.052;14.544;2022-10-30T09:56:52;31.83;;;18.70;;
56181;SDS011;51963;46.052;14.544;2022-10-30T09:59:32;29.83;;;19.55;;
56181;SDS011;51963;46.052;14.544;2022-10-30T10:02:15;31.60;;;20.00;;
56181;SDS011;51963;46.052;14.544;2022-10-30T10:04:48;31.17;;;19.60;;
56181;SDS011;51963;46.052;14.544;2022-10-30T10:07:59;30.38;;;18.75;;
56181;SDS011;51963;46.052;14.544;2022-10-30T10:10:52;24.98;;;16.17;;
56181;SDS011;51963;46.052;14.544;2022-10-30T10:13:32;21.83;;;14.73;;
56181;SDS011;51963;46.052;14.544;2022-10-30T10:16:16;21.05;;;14.27;;
56181;SDS011;51963;46.052;14.544;2022-10-30T10:18:51;19.70;;;13.75;;
56181;SDS011;51963;46.052;14.544;2022-10-30T10:21:24;24.33;;;14.90;;
56181;SDS011;51963;46.052;14.544;2022-10-30T10:23:53;23.45;;;14.23;;
56181;SDS011;51963;46.052;14.544;2022-10-30T10:38:03;22.55;;;15.13;;
56181;SDS011;51963;46.052;14.544;2022-10-30T10:51:09;22.08;;;15.32;;
56181;SDS011;51963;46.052;14.544;2022-10-30T10:56:18;23.17;;;14.88;;
56181;SDS011;51963;46.052;14.544;2022-10-30T10:58:50;25.25;;;16.15;;
56181;SDS011;51963;46.052;14.544;2022-10-30T11:01:31;24.05;;;15.45;;
56181;SDS011;51963;46.052;14.544;2022-10-30T11:06:49;20.33;;;13.55;;
56181;SDS011;51963;46.052;14.544;2022-10-30T11:09:18;22.27;;;12.40;;
56181;SDS011;51963;46.052;14.544;2022-10-30T11:11:47;15.43;;;11.23;;
56181;SDS011;51963;46.052;14.544;2022-10-30T11:14:16;16.48;;;11.25;;
56181;SDS011;51963;46.052;14.544;2022-10-30T11:19:29;17.77;;;11.10;;
56181;SDS011;51963;46.052;14.544;2022-10-30T11:21:56;15.95;;;11.57;;
56181;SDS011;51963;46.052;14.544;2022-10-30T11:24:35;17.65;;;11.77;;
56181;SDS011;51963;46.052;14.544;2022-10-30T11:30:00;20.35;;;14.20;;
56181;SDS011;51963;46.052;14.544;2022-10-30T11:32:32;18.48;;;13.70;;
56181;SDS011;51963;46.052;14.544;2022-10-30T11:35:07;20.92;;;13.63;;
56181;SDS011;51963;46.052;14.544;2022-10-30T11:37:37;20.55;;;14.45;;
56181;SDS011;51963;46.052;14.544;2022-10-30T11:42:38;13.98;;;10.57;;
56181;SDS011;51963;46.052;14.544;2022-10-30T11:45:19;18.90;;;12.55;;
56181;SDS011;51963;46.052;14.544;2022-10-30T11:47:53;16.67;;;12.25;;
56181;SDS011;51963;46.052;14.544;2022-10-30T11:50:23;17.20;;;11.73;;
56181;SDS011;51963;46.052;14.544;2022-10-30T11:52:52;21.70;;;11.70;;
56181;SDS011;51963;46.052;14.544;2022-10-30T11:55:26;17.95;;;11.18;;
56181;SDS011;51963;46.052;14.544;2022-10-30T11:57:58;16.80;;;10.23;;
56181;SDS011;51963;46.052;14.544;2022-10-30T12:00:27;17.00;;;10.57;;
56181;SDS011;51963;46.052;14.544;2022-10-30T12:02:57;15.52;;;11.32;;
56181;SDS011;51963;46.052;14.544;2022-10-30T12:05:35;17.65;;;11.20;;
56181;SDS011;51963;46.052;14.544;2022-10-30T12:10:32;16.52;;;10.38;;
56181;SDS011;51963;46.052;14.544;2022-10-30T12:13:10;17.38;;;10.82;;
56181;SDS011;51963;46.052;14.544;2022-10-30T12:15:39;16.33;;;9.77;;
56181;SDS011;51963;46.052;14.544;2022-10-30T12:18:06;13.30;;;9.30;;
56181;SDS011;51963;46.052;14.544;2022-10-30T12:20:47;15.15;;;9.10;;
56181;SDS011;51963;46.052;14.544;2022-10-30T12:23:22;12.88;;;9.57;;
56181;SDS011;51963;46.052;14.544;2022-10-30T12:25:52;11.45;;;7.80;;
56181;SDS011;51963;46.052;14.544;2022-10-30T12:28:34;11.85;;;6.78;;
56181;SDS011;51963;46.052;14.544;2022-10-30T12:31:13;10.50;;;7.10;;
56181;SDS011;51963;46.052;14.544;2022-10-30T12:33:49;10.65;;;6.47;;
56181;SDS011;51963;46.052;14.544;2022-10-30T12:36:23;13.05;;;6.85;;
56181;SDS011;51963;46.052;14.544;2022-10-30T12:38:58;11.10;;;7.20;;
56181;SDS011;51963;46.052;14.544;2022-10-30T12:41:47;13.90;;;7.07;;
56181;SDS011;51963;46.052;14.544;2022-10-30T12:47:07;9.75;;;7.03;;
56181;SDS011;51963;46.052;14.544;2022-10-30T12:49:45;8.50;;;6.25;;
56181;SDS011;51963;46.052;14.544;2022-10-30T12:57:43;10.10;;;7.37;;
56181;SDS011;51963;46.052;14.544;2022-10-30T13:00:29;9.50;;;7.20;;
56181;SDS011;51963;46.052;14.544;2022-10-30T13:03:49;11.15;;;7.18;;
56181;SDS011;51963;46.052;14.544;2022-10-30T13:06:06;11.60;;;7.13;;
56181;SDS011;51963;46.052;14.544;2022-10-30T13:08:38;10.75;;;6.95;;
56181;SDS011;51963;46.052;14.544;2022-10-30T13:14:04;12.45;;;7.80;;
56181;SDS011;51963;46.052;14.544;2022-10-30T13:16:37;11.95;;;7.57;;
56181;SDS011;51963;46.052;14.544;2022-10-30T13:19:04;12.25;;;7.43;;
56181;SDS011;51963;46.052;14.544;2022-10-30T13:21:50;13.15;;;6.93;;
56181;SDS011;51963;46.052;14.544;2022-10-30T13:35:39;13.00;;;7.10;;
56181;SDS011;51963;46.052;14.544;2022-10-30T13:46:26;11.80;;;7.85;;
56181;SDS011;51963;46.052;14.544;2022-10-30T13:49:00;10.88;;;7.30;;
56181;SDS011;51963;46.052;14.544;2022-10-30T13:54:34;10.40;;;6.68;;
56181;SDS011;51963;46.052;14.544;2022-10-30T13:57:07;10.73;;;6.50;;
56181;SDS011;51963;46.052;14.544;2022-10-30T13:59:43;10.75;;;7.07;;
56181;SDS011;51963;46.052;14.544;2022-10-30T14:10:46;12.05;;;7.13;;
56181;SDS011;51963;46.052;14.544;2022-10-30T14:13:27;12.30;;;6.78;;
56181;SDS011;51963;46.052;14.544;2022-10-30T14:16:10;10.88;;;5.82;;
56181;SDS011;51963;46.052;14.544;2022-10-30T14:19:13;9.25;;;6.32;;
56181;SDS011;51963;46.052;14.544;2022-10-30T14:24:16;12.43;;;6.13;;
56181;SDS011;51963;46.052;14.544;2022-10-30T14:26:47;11.05;;;6.28;;
56181;SDS011;51963;46.052;14.544;2022-10-30T14:31:59;11.32;;;6.68;;
56181;SDS011;51963;46.052;14.544;2022-10-30T14:34:41;10.20;;;6.30;;
56181;SDS011;51963;46.052;14.544;2022-10-30T14:37:08;10.75;;;6.68;;
56181;SDS011;51963;46.052;14.544;2022-10-30T14:39:43;12.07;;;6.10;;
56181;SDS011;51963;46.052;14.544;2022-10-30T14:42:15;12.80;;;7.10;;
56181;SDS011;51963;46.052;14.544;2022-10-30T14:56:02;14.00;;;7.97;;
56181;SDS011;51963;46.052;14.544;2022-10-30T14:58:35;12.60;;;7.53;;
56181;SDS011;51963;46.052;14.544;2022-10-30T15:03:39;11.05;;;7.22;;
56181;SDS011;51963;46.052;14.544;2022-10-30T15:09:18;12.88;;;8.63;;
56181;SDS011;51963;46.052;14.544;2022-10-30T15:14:46;12.73;;;8.52;;
56181;SDS011;51963;46.052;14.544;2022-10-30T15:17:22;11.60;;;7.93;;
56181;SDS011;51963;46.052;14.544;2022-10-30T15:19:55;14.80;;;7.60;;
56181;SDS011;51963;46.052;14.544;2022-10-30T15:22:24;12.57;;;7.63;;
56181;SDS011;51963;46.052;14.544;2022-10-30T15:24:52;13.02;;;7.65;;
56181;SDS011;51963;46.052;14.544;2022-10-30T15:27:18;18.23;;;8.48;;
56181;SDS011;51963;46.052;14.544;2022-10-30T15:29:51;13.18;;;8.57;;
56181;SDS011;51963;46.052;14.544;2022-10-30T15:32:20;15.27;;;9.50;;
56181;SDS011;51963;46.052;14.544;2022-10-30T15:35:30;23.20;;;9.20;;
56181;SDS011;51963;46.052;14.544;2022-10-30T15:38:01;14.65;;;9.30;;
56181;SDS011;51963;46.052;14.544;2022-10-30T15:40:30;16.63;;;9.27;;
56181;SDS011;51963;46.052;14.544;2022-10-30T15:42:59;13.32;;;9.32;;
56181;SDS011;51963;46.052;14.544;2022-10-30T15:48:23;17.63;;;9.20;;
56181;SDS011;51963;46.052;14.544;2022-10-30T15:53:39;16.92;;;8.80;;
56181;SDS011;51963;46.052;14.544;2022-10-30T15:58:47;18.98;;;9.68;;
56181;SDS011;51963;46.052;14.544;2022-10-30T16:01:42;14.20;;;9.15;;
56181;SDS011;51963;46.052;14.544;2022-10-30T16:04:13;21.08;;;10.70;;
56181;SDS011;51963;46.052;14.544;2022-10-30T16:06:50;16.07;;;9.87;;
56181;SDS011;51963;46.052;14.544;2022-10-30T16:09:18;16.63;;;9.52;;
56181;SDS011;51963;46.052;14.544;2022-10-30T16:11:44;19.73;;;10.48;;
56181;SDS011;51963;46.052;14.544;2022-10-30T16:14:16;16.15;;;9.60;;
56181;SDS011;51963;46.052;14.544;2022-10-30T16:16:47;25.17;;;14.13;;
56181;SDS011;51963;46.052;14.544;2022-10-30T16:19:23;26.70;;;10.75;;
56181;SDS011;51963;46.052;14.544;2022-10-30T16:21:52;21.55;;;11.27;;
56181;SDS011;51963;46.052;14.544;2022-10-30T16:24:20;21.38;;;10.52;;
56181;SDS011;51963;46.052;14.544;2022-10-30T16:27:03;17.33;;;10.63;;
56181;SDS011;51963;46.052;14.544;2022-10-30T16:29:31;17.88;;;10.82;;
56181;SDS011;51963;46.052;14.544;2022-10-30T16:31:58;18.83;;;10.02;;
56181;SDS011;51963;46.052;14.544;2022-10-30T16:34:31;16.45;;;10.43;;
56181;SDS011;51963;46.052;14.544;2022-10-30T16:37:02;21.02;;;10.48;;
56181;SDS011;51963;46.052;14.544;2022-10-30T16:39:29;17.67;;;10.88;;
56181;SDS011;51963;46.052;14.544;2022-10-30T16:41:57;21.27;;;10.93;;
56181;SDS011;51963;46.052;14.544;2022-10-30T16:44:25;19.58;;;10.73;;
56181;SDS011;51963;46.052;14.544;2022-10-30T16:49:30;23.27;;;10.95;;
56181;SDS011;51963;46.052;14.544;2022-10-30T16:52:02;19.30;;;11.63;;
56181;SDS011;51963;46.052;14.544;2022-10-30T16:54:31;23.50;;;12.75;;
56181;SDS011;51963;46.052;14.544;2022-10-30T16:57:02;24.15;;;12.00;;
56181;SDS011;51963;46.052;14.544;2022-10-30T16:59:42;22.58;;;12.50;;
56181;SDS011;51963;46.052;14.544;2022-10-30T17:02:21;20.77;;;12.37;;
56181;SDS011;51963;46.052;14.544;2022-10-30T17:07:57;17.88;;;11.55;;
56181;SDS011;51963;46.052;14.544;2022-10-30T17:13:24;21.08;;;10.95;;
56181;SDS011;51963;46.052;14.544;2022-10-30T17:15:54;17.10;;;10.70;;
56181;SDS011;51963;46.052;14.544;2022-10-30T17:18:20;18.35;;;11.82;;
56181;SDS011;51963;46.052;14.544;2022-10-30T17:20:59;25.25;;;11.82;;
56181;SDS011;51963;46.052;14.544;2022-10-30T17:23:26;16.70;;;10.98;;